sensor_id;sensor_type;location;lat;lon;timestamp;P1;durP1;ratioP1;P2;durP2;ratioP2
46284;SDS011;32018;59.182;18.148;2023-11-19T00:02:06;1.00;;;1.00;;
46284;SDS011;32018;59.182;18.148;2023-11-19T00:04:33;1.00;;;1.00;;
46284;SDS011;32018;59.182;18.148;2023-11-19T00:06:58;1.00;;;1.00;;
46284;SDS011;32018;59.182;18.148;2023-11-19T00:09:28;1.00;;;1.00;;
46284;SDS011;32018;59.182;18.148;2023-11-19T00:11:53;1.02;;;1.00;;
46284;SDS011;32018;59.182;18.148;2023-11-19T00:14:18;0.87;;;0.87;;
46284;SDS011;32018;59.182;18.148;2023-11-19T00:16:43;1.05;;;1.05;;
46284;SDS011;32018;59.182;18.148;2023-11-19T00:19:09;1.10;;;1.10;;
46284;SDS011;32018;59.182;18.148;2023-11-19T00:21:34;1.10;;;1.10;;
46284;SDS011;32018;59.182;18.148;2023-11-19T00:23:59;1.00;;;1.00;;
46284;SDS011;32018;59.182;18.148;2023-11-19T00:26:25;0.95;;;0.95;;
46284;SDS011;32018;59.182;18.148;2023-11-19T00:28:50;0.93;;;0.93;;
46284;SDS011;32018;59.182;18.148;2023-11-19T00:31:15;1.00;;;1.00;;
46284;SDS011;32018;59.182;18.148;2023-11-19T00:33:40;0.90;;;0.90;;
46284;SDS011;32018;59.182;18.148;2023-11-19T00:36:06;1.00;;;1.00;;
46284;SDS011;32018;59.182;18.148;2023-11-19T00:38:31;0.90;;;0.90;;
46284;SDS011;32018;59.182;18.148;2023-11-19T00:40:56;0.90;;;0.90;;
46284;SDS011;32018;59.182;18.148;2023-11-19T00:43:21;0.80;;;0.80;;
46284;SDS011;32018;59.182;18.148;2023-11-19T00:45:47;1.02;;;1.02;;
46284;SDS011;32018;59.182;18.148;2023-11-19T00:48:15;1.00;;;1.00;;
46284;SDS011;32018;59.182;18.148;2023-11-19T00:50:40;1.08;;;0.98;;
46284;SDS011;32018;59.182;18.148;2023-11-19T00:53:09;0.90;;;0.90;;
46284;SDS011;32018;59.182;18.148;2023-11-19T00:55:34;0.98;;;0.98;;
46284;SDS011;32018;59.182;18.148;2023-11-19T00:57:59;0.90;;;0.90;;
46284;SDS011;32018;59.182;18.148;2023-11-19T01:00:24;0.77;;;0.77;;
46284;SDS011;32018;59.182;18.148;2023-11-19T01:02:52;1.00;;;1.00;;
46284;SDS011;32018;59.182;18.148;2023-11-19T01:05:17;1.00;;;0.90;;
46284;SDS011;32018;59.182;18.148;2023-11-19T01:07:46;1.00;;;1.00;;
46284;SDS011;32018;59.182;18.148;2023-11-19T01:10:12;1.15;;;1.15;;
46284;SDS011;32018;59.182;18.148;2023-11-19T01:12:37;0.88;;;0.88;;
46284;SDS011;32018;59.182;18.148;2023-11-19T01:15:02;0.90;;;0.90;;
46284;SDS011;32018;59.182;18.148;2023-11-19T01:17:28;0.98;;;0.98;;
46284;SDS011;32018;59.182;18.148;2023-11-19T01:19:53;0.88;;;0.88;;
46284;SDS011;32018;59.182;18.148;2023-11-19T01:22:18;1.10;;;1.10;;
46284;SDS011;32018;59.182;18.148;2023-11-19T01:24:44;1.00;;;1.00;;
46284;SDS011;32018;59.182;18.148;2023-11-19T01:27:10;1.40;;;1.40;;
46284;SDS011;32018;59.182;18.148;2023-11-19T01:29:35;1.02;;;1.02;;
46284;SDS011;32018;59.182;18.148;2023-11-19T01:32:03;0.88;;;0.88;;
46284;SDS011;32018;59.182;18.148;2023-11-19T01:34:28;1.02;;;1.02;;
46284;SDS011;32018;59.182;18.148;2023-11-19T01:36:53;0.90;;;0.90;;
46284;SDS011;32018;59.182;18.148;2023-11-19T01:39:19;0.90;;;0.90;;
46284;SDS011;32018;59.182;18.148;2023-11-19T01:41:45;0.90;;;0.90;;
46284;SDS011;32018;59.182;18.148;2023-11-19T01:44:12;0.98;;;0.98;;
46284;SDS011;32018;59.182;18.148;2023-11-19T01:46:37;1.20;;;1.10;;
46284;SDS011;32018;59.182;18.148;2023-11-19T01:49:04;0.88;;;0.88;;
46284;SDS011;32018;59.182;18.148;2023-11-19T01:51:30;1.00;;;1.00;;
46284;SDS011;32018;59.182;18.148;2023-11-19T01:53:55;1.00;;;1.00;;
46284;SDS011;32018;59.182;18.148;2023-11-19T01:56:22;1.20;;;1.20;;
46284;SDS011;32018;59.182;18.148;2023-11-19T01:58:48;1.20;;;1.20;;
46284;SDS011;32018;59.182;18.148;2023-11-19T02:01:13;0.95;;;0.95;;
46284;SDS011;32018;59.182;18.148;2023-11-19T02:03:39;1.20;;;1.20;;
46284;SDS011;32018;59.182;18.148;2023-11-19T02:06:05;0.70;;;0.70;;
46284;SDS011;32018;59.182;18.148;2023-11-19T02:08:30;1.25;;;1.13;;
46284;SDS011;32018;59.182;18.148;2023-11-19T02:10:56;1.00;;;1.00;;
46284;SDS011;32018;59.182;18.148;2023-11-19T02:13:23;1.00;;;1.00;;
46284;SDS011;32018;59.182;18.148;2023-11-19T02:15:48;1.13;;;1.13;;
46284;SDS011;32018;59.182;18.148;2023-11-19T02:18:20;1.42;;;1.10;;
46284;SDS011;32018;59.182;18.148;2023-11-19T02:20:46;1.20;;;1.10;;
46284;SDS011;32018;59.182;18.148;2023-11-19T02:23:13;1.13;;;1.13;;
46284;SDS011;32018;59.182;18.148;2023-11-19T02:25:38;1.05;;;1.05;;
46284;SDS011;32018;59.182;18.148;2023-11-19T02:28:04;1.25;;;1.15;;
46284;SDS011;32018;59.182;18.148;2023-11-19T02:30:30;1.02;;;1.02;;
46284;SDS011;32018;59.182;18.148;2023-11-19T02:32:57;1.27;;;1.20;;
46284;SDS011;32018;59.182;18.148;2023-11-19T02:35:24;1.27;;;1.27;;
46284;SDS011;32018;59.182;18.148;2023-11-19T02:37:49;1.40;;;1.30;;
46284;SDS011;32018;59.182;18.148;2023-11-19T02:40:14;1.30;;;1.20;;
46284;SDS011;32018;59.182;18.148;2023-11-19T02:42:40;1.13;;;1.13;;
46284;SDS011;32018;59.182;18.148;2023-11-19T02:45:05;1.20;;;1.10;;
46284;SDS011;32018;59.182;18.148;2023-11-19T02:47:32;1.27;;;1.27;;
46284;SDS011;32018;59.182;18.148;2023-11-19T02:49:57;1.20;;;1.20;;
46284;SDS011;32018;59.182;18.148;2023-11-19T02:52:22;1.65;;;1.30;;
46284;SDS011;32018;59.182;18.148;2023-11-19T02:54:48;1.35;;;1.25;;
46284;SDS011;32018;59.182;18.148;2023-11-19T02:57:13;1.23;;;1.23;;
46284;SDS011;32018;59.182;18.148;2023-11-19T02:59:38;1.05;;;1.02;;
46284;SDS011;32018;59.182;18.148;2023-11-19T03:02:06;1.30;;;1.20;;
46284;SDS011;32018;59.182;18.148;2023-11-19T03:04:32;1.17;;;1.17;;
46284;SDS011;32018;59.182;18.148;2023-11-19T03:06:57;1.30;;;1.20;;
46284;SDS011;32018;59.182;18.148;2023-11-19T03:09:23;1.10;;;1.10;;
46284;SDS011;32018;59.182;18.148;2023-11-19T03:11:49;1.30;;;1.30;;
46284;SDS011;32018;59.182;18.148;2023-11-19T03:14:14;1.27;;;1.20;;
46284;SDS011;32018;59.182;18.148;2023-11-19T03:16:39;1.20;;;1.20;;
46284;SDS011;32018;59.182;18.148;2023-11-19T03:19:05;1.58;;;1.48;;
46284;SDS011;32018;59.182;18.148;2023-11-19T03:21:30;0.98;;;0.98;;
46284;SDS011;32018;59.182;18.148;2023-11-19T03:23:56;1.25;;;1.15;;
46284;SDS011;32018;59.182;18.148;2023-11-19T03:26:21;1.20;;;1.20;;
46284;SDS011;32018;59.182;18.148;2023-11-19T03:28:47;1.38;;;1.23;;
46284;SDS011;32018;59.182;18.148;2023-11-19T03:31:12;1.40;;;1.30;;
46284;SDS011;32018;59.182;18.148;2023-11-19T03:33:37;1.40;;;1.30;;
46284;SDS011;32018;59.182;18.148;2023-11-19T03:36:03;1.20;;;1.20;;
46284;SDS011;32018;59.182;18.148;2023-11-19T03:38:28;1.60;;;1.50;;
46284;SDS011;32018;59.182;18.148;2023-11-19T03:40:53;1.20;;;1.20;;
46284;SDS011;32018;59.182;18.148;2023-11-19T03:43:19;1.30;;;1.30;;
46284;SDS011;32018;59.182;18.148;2023-11-19T03:45:44;1.30;;;1.20;;
46284;SDS011;32018;59.182;18.148;2023-11-19T03:48:09;1.25;;;1.15;;
46284;SDS011;32018;59.182;18.148;2023-11-19T03:50:34;1.23;;;1.20;;
46284;SDS011;32018;59.182;18.148;2023-11-19T03:53:00;1.52;;;1.42;;
46284;SDS011;32018;59.182;18.148;2023-11-19T03:55:25;1.35;;;1.30;;
46284;SDS011;32018;59.182;18.148;2023-11-19T03:57:50;1.50;;;1.40;;
46284;SDS011;32018;59.182;18.148;2023-11-19T04:00:15;1.08;;;1.08;;
46284;SDS011;32018;59.182;18.148;2023-11-19T04:02:41;1.17;;;1.17;;
46284;SDS011;32018;59.182;18.148;2023-11-19T04:05:06;1.40;;;1.40;;
46284;SDS011;32018;59.182;18.148;2023-11-19T04:07:32;1.30;;;1.30;;
46284;SDS011;32018;59.182;18.148;2023-11-19T04:09:57;1.40;;;1.30;;
46284;SDS011;32018;59.182;18.148;2023-11-19T04:12:22;1.60;;;1.50;;
46284;SDS011;32018;59.182;18.148;2023-11-19T04:14:48;1.25;;;1.25;;
46284;SDS011;32018;59.182;18.148;2023-11-19T04:17:13;1.17;;;1.17;;
46284;SDS011;32018;59.182;18.148;2023-11-19T04:19:38;1.58;;;1.48;;
46284;SDS011;32018;59.182;18.148;2023-11-19T04:22:06;1.30;;;1.30;;
46284;SDS011;32018;59.182;18.148;2023-11-19T04:24:31;1.20;;;1.20;;
46284;SDS011;32018;59.182;18.148;2023-11-19T04:26:56;1.20;;;1.20;;
46284;SDS011;32018;59.182;18.148;2023-11-19T04:29:21;1.55;;;1.45;;
46284;SDS011;32018;59.182;18.148;2023-11-19T04:31:47;1.20;;;1.20;;
46284;SDS011;32018;59.182;18.148;2023-11-19T04:34:12;1.33;;;1.33;;
46284;SDS011;32018;59.182;18.148;2023-11-19T04:36:37;1.20;;;1.20;;
46284;SDS011;32018;59.182;18.148;2023-11-19T04:39:03;1.33;;;1.33;;
46284;SDS011;32018;59.182;18.148;2023-11-19T04:41:50;1.20;;;1.20;;
46284;SDS011;32018;59.182;18.148;2023-11-19T04:44:17;1.20;;;1.20;;
46284;SDS011;32018;59.182;18.148;2023-11-19T04:46:42;1.45;;;1.35;;
46284;SDS011;32018;59.182;18.148;2023-11-19T04:49:11;1.40;;;1.30;;
46284;SDS011;32018;59.182;18.148;2023-11-19T04:51:42;1.25;;;1.25;;
46284;SDS011;32018;59.182;18.148;2023-11-19T04:54:08;1.20;;;1.20;;
46284;SDS011;32018;59.182;18.148;2023-11-19T04:56:34;1.27;;;1.17;;
46284;SDS011;32018;59.182;18.148;2023-11-19T04:59:00;1.55;;;1.45;;
46284;SDS011;32018;59.182;18.148;2023-11-19T05:01:25;1.30;;;1.30;;
46284;SDS011;32018;59.182;18.148;2023-11-19T05:03:50;1.83;;;1.73;;
46284;SDS011;32018;59.182;18.148;2023-11-19T05:06:16;1.20;;;1.20;;
46284;SDS011;32018;59.182;18.148;2023-11-19T05:08:41;1.45;;;1.35;;
46284;SDS011;32018;59.182;18.148;2023-11-19T05:11:06;1.70;;;1.60;;
46284;SDS011;32018;59.182;18.148;2023-11-19T05:13:32;1.40;;;1.30;;
46284;SDS011;32018;59.182;18.148;2023-11-19T05:15:57;1.50;;;1.40;;
46284;SDS011;32018;59.182;18.148;2023-11-19T05:18:22;1.20;;;1.20;;
46284;SDS011;32018;59.182;18.148;2023-11-19T05:20:48;1.25;;;1.25;;
46284;SDS011;32018;59.182;18.148;2023-11-19T05:23:13;1.77;;;1.67;;
46284;SDS011;32018;59.182;18.148;2023-11-19T05:25:38;1.20;;;1.20;;
46284;SDS011;32018;59.182;18.148;2023-11-19T05:28:04;1.38;;;1.33;;
46284;SDS011;32018;59.182;18.148;2023-11-19T05:30:29;1.50;;;1.40;;
46284;SDS011;32018;59.182;18.148;2023-11-19T05:32:54;1.42;;;1.38;;
46284;SDS011;32018;59.182;18.148;2023-11-19T05:35:19;1.52;;;1.45;;
46284;SDS011;32018;59.182;18.148;2023-11-19T05:37:45;1.30;;;1.30;;
46284;SDS011;32018;59.182;18.148;2023-11-19T05:40:10;1.48;;;1.40;;
46284;SDS011;32018;59.182;18.148;2023-11-19T05:42:40;1.33;;;1.33;;
46284;SDS011;32018;59.182;18.148;2023-11-19T05:45:05;1.30;;;1.30;;
46284;SDS011;32018;59.182;18.148;2023-11-19T05:47:30;1.38;;;1.30;;
46284;SDS011;32018;59.182;18.148;2023-11-19T05:49:55;1.48;;;1.48;;
46284;SDS011;32018;59.182;18.148;2023-11-19T05:52:21;1.33;;;1.23;;
46284;SDS011;32018;59.182;18.148;2023-11-19T05:54:47;1.30;;;1.30;;
46284;SDS011;32018;59.182;18.148;2023-11-19T05:57:16;1.13;;;1.13;;
46284;SDS011;32018;59.182;18.148;2023-11-19T05:59:45;1.50;;;1.40;;
46284;SDS011;32018;59.182;18.148;2023-11-19T06:02:10;1.20;;;1.20;;
46284;SDS011;32018;59.182;18.148;2023-11-19T06:04:35;1.23;;;1.23;;
46284;SDS011;32018;59.182;18.148;2023-11-19T06:07:01;1.40;;;1.40;;
46284;SDS011;32018;59.182;18.148;2023-11-19T06:09:26;1.60;;;1.50;;
46284;SDS011;32018;59.182;18.148;2023-11-19T06:11:51;1.45;;;1.40;;
46284;SDS011;32018;59.182;18.148;2023-11-19T06:14:17;1.33;;;1.33;;
46284;SDS011;32018;59.182;18.148;2023-11-19T06:16:42;1.50;;;1.40;;
46284;SDS011;32018;59.182;18.148;2023-11-19T06:19:07;1.60;;;1.50;;
46284;SDS011;32018;59.182;18.148;2023-11-19T06:21:33;1.27;;;1.27;;
46284;SDS011;32018;59.182;18.148;2023-11-19T06:23:58;1.60;;;1.50;;
46284;SDS011;32018;59.182;18.148;2023-11-19T06:26:24;1.65;;;1.55;;
46284;SDS011;32018;59.182;18.148;2023-11-19T06:28:49;1.58;;;1.50;;
46284;SDS011;32018;59.182;18.148;2023-11-19T06:31:14;1.50;;;1.40;;
46284;SDS011;32018;59.182;18.148;2023-11-19T06:33:41;1.40;;;1.38;;
46284;SDS011;32018;59.182;18.148;2023-11-19T06:36:06;1.48;;;1.42;;
46284;SDS011;32018;59.182;18.148;2023-11-19T06:38:32;1.40;;;1.40;;
46284;SDS011;32018;59.182;18.148;2023-11-19T06:40:58;1.30;;;1.30;;
46284;SDS011;32018;59.182;18.148;2023-11-19T06:43:23;1.63;;;1.52;;
46284;SDS011;32018;59.182;18.148;2023-11-19T06:45:48;1.50;;;1.40;;
46284;SDS011;32018;59.182;18.148;2023-11-19T06:48:13;1.60;;;1.50;;
46284;SDS011;32018;59.182;18.148;2023-11-19T06:50:39;1.65;;;1.55;;
46284;SDS011;32018;59.182;18.148;2023-11-19T06:53:04;1.45;;;1.45;;
46284;SDS011;32018;59.182;18.148;2023-11-19T06:55:31;1.60;;;1.50;;
46284;SDS011;32018;59.182;18.148;2023-11-19T06:57:57;1.42;;;1.40;;
46284;SDS011;32018;59.182;18.148;2023-11-19T07:00:22;1.17;;;1.17;;
46284;SDS011;32018;59.182;18.148;2023-11-19T07:02:47;1.60;;;1.50;;
46284;SDS011;32018;59.182;18.148;2023-11-19T07:05:12;1.40;;;1.40;;
46284;SDS011;32018;59.182;18.148;2023-11-19T07:07:38;1.50;;;1.40;;
46284;SDS011;32018;59.182;18.148;2023-11-19T07:10:04;1.65;;;1.55;;
46284;SDS011;32018;59.182;18.148;2023-11-19T07:12:31;1.65;;;1.58;;
46284;SDS011;32018;59.182;18.148;2023-11-19T07:14:57;1.60;;;1.50;;
46284;SDS011;32018;59.182;18.148;2023-11-19T07:17:22;1.42;;;1.33;;
46284;SDS011;32018;59.182;18.148;2023-11-19T07:19:49;1.52;;;1.45;;
46284;SDS011;32018;59.182;18.148;2023-11-19T07:22:14;1.60;;;1.50;;
46284;SDS011;32018;59.182;18.148;2023-11-19T07:24:40;1.65;;;1.55;;
46284;SDS011;32018;59.182;18.148;2023-11-19T07:27:06;1.33;;;1.33;;
46284;SDS011;32018;59.182;18.148;2023-11-19T07:29:31;1.48;;;1.42;;
46284;SDS011;32018;59.182;18.148;2023-11-19T07:31:57;1.45;;;1.40;;
46284;SDS011;32018;59.182;18.148;2023-11-19T07:34:22;1.70;;;1.60;;
46284;SDS011;32018;59.182;18.148;2023-11-19T07:36:47;1.83;;;1.42;;
46284;SDS011;32018;59.182;18.148;2023-11-19T07:39:12;1.48;;;1.40;;
46284;SDS011;32018;59.182;18.148;2023-11-19T07:41:38;1.65;;;1.55;;
46284;SDS011;32018;59.182;18.148;2023-11-19T07:44:03;1.75;;;1.65;;
46284;SDS011;32018;59.182;18.148;2023-11-19T07:46:28;1.42;;;1.33;;
46284;SDS011;32018;59.182;18.148;2023-11-19T07:48:54;1.65;;;1.55;;
46284;SDS011;32018;59.182;18.148;2023-11-19T07:51:19;1.33;;;1.33;;
46284;SDS011;32018;59.182;18.148;2023-11-19T07:53:44;1.55;;;1.50;;
46284;SDS011;32018;59.182;18.148;2023-11-19T07:56:09;1.30;;;1.30;;
46284;SDS011;32018;59.182;18.148;2023-11-19T07:58:35;1.80;;;1.70;;
46284;SDS011;32018;59.182;18.148;2023-11-19T08:01:01;1.95;;;1.85;;
46284;SDS011;32018;59.182;18.148;2023-11-19T08:03:27;1.70;;;1.60;;
46284;SDS011;32018;59.182;18.148;2023-11-19T08:05:54;1.95;;;1.80;;
46284;SDS011;32018;59.182;18.148;2023-11-19T08:08:20;1.58;;;1.48;;
46284;SDS011;32018;59.182;18.148;2023-11-19T08:10:45;1.42;;;1.38;;
46284;SDS011;32018;59.182;18.148;2023-11-19T08:13:12;2.13;;;2.03;;
46284;SDS011;32018;59.182;18.148;2023-11-19T08:15:38;1.60;;;1.50;;
46284;SDS011;32018;59.182;18.148;2023-11-19T08:18:03;1.60;;;1.50;;
46284;SDS011;32018;59.182;18.148;2023-11-19T08:20:28;1.60;;;1.50;;
46284;SDS011;32018;59.182;18.148;2023-11-19T08:22:53;1.60;;;1.50;;
46284;SDS011;32018;59.182;18.148;2023-11-19T08:25:19;1.70;;;1.60;;
46284;SDS011;32018;59.182;18.148;2023-11-19T08:27:44;1.70;;;1.60;;
46284;SDS011;32018;59.182;18.148;2023-11-19T08:30:09;1.60;;;1.50;;
46284;SDS011;32018;59.182;18.148;2023-11-19T08:32:35;1.80;;;1.70;;
46284;SDS011;32018;59.182;18.148;2023-11-19T08:35:01;1.67;;;1.58;;
46284;SDS011;32018;59.182;18.148;2023-11-19T08:37:26;1.85;;;1.75;;
46284;SDS011;32018;59.182;18.148;2023-11-19T08:39:52;1.60;;;1.50;;
46284;SDS011;32018;59.182;18.148;2023-11-19T08:42:17;1.77;;;1.67;;
46284;SDS011;32018;59.182;18.148;2023-11-19T08:44:42;1.80;;;1.70;;
46284;SDS011;32018;59.182;18.148;2023-11-19T08:47:09;1.60;;;1.50;;
46284;SDS011;32018;59.182;18.148;2023-11-19T08:49:34;1.90;;;1.80;;
46284;SDS011;32018;59.182;18.148;2023-11-19T08:52:00;1.80;;;1.70;;
46284;SDS011;32018;59.182;18.148;2023-11-19T08:54:25;1.65;;;1.55;;
46284;SDS011;32018;59.182;18.148;2023-11-19T08:56:50;1.67;;;1.58;;
46284;SDS011;32018;59.182;18.148;2023-11-19T08:59:15;1.80;;;1.70;;
46284;SDS011;32018;59.182;18.148;2023-11-19T09:01:41;1.70;;;1.60;;
46284;SDS011;32018;59.182;18.148;2023-11-19T09:04:06;1.58;;;1.48;;
46284;SDS011;32018;59.182;18.148;2023-11-19T09:06:32;1.95;;;1.85;;
46284;SDS011;32018;59.182;18.148;2023-11-19T09:08:57;1.83;;;1.73;;
46284;SDS011;32018;59.182;18.148;2023-11-19T09:11:26;1.70;;;1.60;;
46284;SDS011;32018;59.182;18.148;2023-11-19T09:13:51;1.48;;;1.48;;
46284;SDS011;32018;59.182;18.148;2023-11-19T09:16:16;1.73;;;1.63;;
46284;SDS011;32018;59.182;18.148;2023-11-19T09:18:42;1.90;;;1.80;;
46284;SDS011;32018;59.182;18.148;2023-11-19T09:21:07;1.70;;;1.60;;
46284;SDS011;32018;59.182;18.148;2023-11-19T09:23:32;1.80;;;1.70;;
46284;SDS011;32018;59.182;18.148;2023-11-19T09:26:03;3.33;;;1.92;;
46284;SDS011;32018;59.182;18.148;2023-11-19T09:28:30;3.20;;;2.90;;
46284;SDS011;32018;59.182;18.148;2023-11-19T09:30:55;3.75;;;3.55;;
46284;SDS011;32018;59.182;18.148;2023-11-19T09:33:21;3.75;;;3.33;;
46284;SDS011;32018;59.182;18.148;2023-11-19T09:35:46;4.38;;;3.20;;
46284;SDS011;32018;59.182;18.148;2023-11-19T09:38:11;3.17;;;2.97;;
46284;SDS011;32018;59.182;18.148;2023-11-19T09:40:37;3.90;;;3.60;;
46284;SDS011;32018;59.182;18.148;2023-11-19T09:43:03;2.72;;;2.53;;
46284;SDS011;32018;59.182;18.148;2023-11-19T09:45:29;2.90;;;2.70;;
46284;SDS011;32018;59.182;18.148;2023-11-19T09:47:56;2.85;;;2.65;;
46284;SDS011;32018;59.182;18.148;2023-11-19T09:50:22;3.40;;;3.20;;
46284;SDS011;32018;59.182;18.148;2023-11-19T09:52:48;3.67;;;3.47;;
46284;SDS011;32018;59.182;18.148;2023-11-19T09:55:13;3.55;;;3.35;;
46284;SDS011;32018;59.182;18.148;2023-11-19T09:57:39;2.97;;;2.78;;
46284;SDS011;32018;59.182;18.148;2023-11-19T10:00:06;2.90;;;2.70;;
46284;SDS011;32018;59.182;18.148;2023-11-19T10:02:33;2.30;;;2.20;;
46284;SDS011;32018;59.182;18.148;2023-11-19T10:04:58;3.03;;;2.83;;
46284;SDS011;32018;59.182;18.148;2023-11-19T10:07:24;3.75;;;3.55;;
46284;SDS011;32018;59.182;18.148;2023-11-19T10:09:49;2.92;;;2.75;;
46284;SDS011;32018;59.182;18.148;2023-11-19T10:12:15;3.03;;;2.83;;
46284;SDS011;32018;59.182;18.148;2023-11-19T10:14:41;3.13;;;2.33;;
46284;SDS011;32018;59.182;18.148;2023-11-19T10:17:08;2.38;;;2.28;;
46284;SDS011;32018;59.182;18.148;2023-11-19T10:19:33;2.28;;;2.17;;
46284;SDS011;32018;59.182;18.148;2023-11-19T10:22:07;3.10;;;2.90;;
46284;SDS011;32018;59.182;18.148;2023-11-19T10:24:33;2.22;;;2.13;;
46284;SDS011;32018;59.182;18.148;2023-11-19T10:27:01;2.60;;;2.40;;
46284;SDS011;32018;59.182;18.148;2023-11-19T10:29:29;2.50;;;2.33;;
46284;SDS011;32018;59.182;18.148;2023-11-19T10:31:57;2.35;;;2.22;;
46284;SDS011;32018;59.182;18.148;2023-11-19T10:34:26;2.95;;;2.75;;
46284;SDS011;32018;59.182;18.148;2023-11-19T10:36:51;1.90;;;1.80;;
46284;SDS011;32018;59.182;18.148;2023-11-19T10:39:17;2.60;;;2.40;;
46284;SDS011;32018;59.182;18.148;2023-11-19T10:41:43;2.70;;;2.50;;
46284;SDS011;32018;59.182;18.148;2023-11-19T10:44:08;3.00;;;2.80;;
46284;SDS011;32018;59.182;18.148;2023-11-19T10:46:40;2.80;;;2.60;;
46284;SDS011;32018;59.182;18.148;2023-11-19T10:49:06;2.53;;;2.33;;
46284;SDS011;32018;59.182;18.148;2023-11-19T10:51:31;2.60;;;2.25;;
46284;SDS011;32018;59.182;18.148;2023-11-19T10:53:57;2.60;;;2.40;;
46284;SDS011;32018;59.182;18.148;2023-11-19T10:56:25;2.92;;;2.70;;
46284;SDS011;32018;59.182;18.148;2023-11-19T10:58:54;3.10;;;2.90;;
46284;SDS011;32018;59.182;18.148;2023-11-19T11:01:20;2.72;;;2.60;;
46284;SDS011;32018;59.182;18.148;2023-11-19T11:03:48;3.20;;;3.00;;
46284;SDS011;32018;59.182;18.148;2023-11-19T11:06:16;2.50;;;2.40;;
46284;SDS011;32018;59.182;18.148;2023-11-19T11:08:42;2.95;;;2.70;;
46284;SDS011;32018;59.182;18.148;2023-11-19T11:11:08;12.63;;;4.05;;
46284;SDS011;32018;59.182;18.148;2023-11-19T11:13:35;3.60;;;3.22;;
46284;SDS011;32018;59.182;18.148;2023-11-19T11:16:01;3.60;;;2.97;;
46284;SDS011;32018;59.182;18.148;2023-11-19T11:18:29;2.70;;;2.50;;
46284;SDS011;32018;59.182;18.148;2023-11-19T11:20:57;2.92;;;2.55;;
46284;SDS011;32018;59.182;18.148;2023-11-19T11:31:25;4.30;;;2.90;;
46284;SDS011;32018;59.182;18.148;2023-11-19T11:34:00;3.28;;;3.08;;
46284;SDS011;32018;59.182;18.148;2023-11-19T11:36:29;3.50;;;3.30;;
46284;SDS011;32018;59.182;18.148;2023-11-19T11:38:55;4.18;;;3.88;;
46284;SDS011;32018;59.182;18.148;2023-11-19T11:41:23;4.10;;;2.70;;
46284;SDS011;32018;59.182;18.148;2023-11-19T11:43:51;3.95;;;2.92;;
46284;SDS011;32018;59.182;18.148;2023-11-19T11:48:57;2.38;;;2.17;;
46284;SDS011;32018;59.182;18.148;2023-11-19T11:54:08;3.10;;;2.90;;
46284;SDS011;32018;59.182;18.148;2023-11-19T11:56:33;3.00;;;2.80;;
46284;SDS011;32018;59.182;18.148;2023-11-19T11:58:59;3.00;;;2.80;;
46284;SDS011;32018;59.182;18.148;2023-11-19T12:01:25;2.80;;;2.65;;
46284;SDS011;32018;59.182;18.148;2023-11-19T12:03:55;2.70;;;2.50;;
46284;SDS011;32018;59.182;18.148;2023-11-19T12:06:21;2.60;;;2.40;;
46284;SDS011;32018;59.182;18.148;2023-11-19T12:08:46;2.60;;;2.40;;
46284;SDS011;32018;59.182;18.148;2023-11-19T12:11:11;2.58;;;2.38;;
46284;SDS011;32018;59.182;18.148;2023-11-19T12:13:47;2.65;;;2.47;;
46284;SDS011;32018;59.182;18.148;2023-11-19T12:16:13;2.53;;;2.33;;
46284;SDS011;32018;59.182;18.148;2023-11-19T12:18:38;2.33;;;2.13;;
46284;SDS011;32018;59.182;18.148;2023-11-19T12:21:04;3.00;;;2.55;;
46284;SDS011;32018;59.182;18.148;2023-11-19T12:23:31;2.22;;;2.13;;
46284;SDS011;32018;59.182;18.148;2023-11-19T12:25:57;2.10;;;2.00;;
46284;SDS011;32018;59.182;18.148;2023-11-19T12:28:22;2.88;;;2.67;;
46284;SDS011;32018;59.182;18.148;2023-11-19T12:30:49;2.85;;;2.65;;
46284;SDS011;32018;59.182;18.148;2023-11-19T12:33:14;2.40;;;2.22;;
46284;SDS011;32018;59.182;18.148;2023-11-19T12:35:43;2.50;;;2.30;;
46284;SDS011;32018;59.182;18.148;2023-11-19T12:38:18;2.13;;;1.92;;
46284;SDS011;32018;59.182;18.148;2023-11-19T12:40:43;2.63;;;2.42;;
46284;SDS011;32018;59.182;18.148;2023-11-19T12:43:08;2.85;;;2.65;;
46284;SDS011;32018;59.182;18.148;2023-11-19T12:45:34;2.45;;;2.33;;
46284;SDS011;32018;59.182;18.148;2023-11-19T12:48:06;2.60;;;2.40;;
46284;SDS011;32018;59.182;18.148;2023-11-19T12:50:50;2.55;;;2.35;;
46284;SDS011;32018;59.182;18.148;2023-11-19T12:53:15;2.20;;;2.10;;
46284;SDS011;32018;59.182;18.148;2023-11-19T12:55:40;2.53;;;2.33;;
46284;SDS011;32018;59.182;18.148;2023-11-19T12:58:05;2.40;;;2.20;;
46284;SDS011;32018;59.182;18.148;2023-11-19T13:00:31;2.72;;;2.53;;
46284;SDS011;32018;59.182;18.148;2023-11-19T13:02:56;2.50;;;2.30;;
46284;SDS011;32018;59.182;18.148;2023-11-19T13:07:47;2.50;;;2.30;;
46284;SDS011;32018;59.182;18.148;2023-11-19T13:10:12;2.42;;;2.28;;
46284;SDS011;32018;59.182;18.148;2023-11-19T13:12:38;3.40;;;3.10;;
46284;SDS011;32018;59.182;18.148;2023-11-19T13:15:03;2.78;;;2.58;;
46284;SDS011;32018;59.182;18.148;2023-11-19T13:17:28;2.17;;;2.08;;
46284;SDS011;32018;59.182;18.148;2023-11-19T13:19:53;2.38;;;2.17;;
46284;SDS011;32018;59.182;18.148;2023-11-19T13:22:21;1.98;;;1.88;;
46284;SDS011;32018;59.182;18.148;2023-11-19T13:24:46;2.25;;;2.15;;
46284;SDS011;32018;59.182;18.148;2023-11-19T13:27:12;2.60;;;2.42;;
46284;SDS011;32018;59.182;18.148;2023-11-19T13:29:38;2.25;;;2.15;;
46284;SDS011;32018;59.182;18.148;2023-11-19T13:32:03;2.60;;;2.47;;
46284;SDS011;32018;59.182;18.148;2023-11-19T13:34:29;2.47;;;2.38;;
46284;SDS011;32018;59.182;18.148;2023-11-19T13:36:54;2.25;;;2.08;;
46284;SDS011;32018;59.182;18.148;2023-11-19T13:39:19;2.13;;;2.03;;
46284;SDS011;32018;59.182;18.148;2023-11-19T13:41:48;2.42;;;2.33;;
46284;SDS011;32018;59.182;18.148;2023-11-19T13:44:13;2.15;;;2.05;;
46284;SDS011;32018;59.182;18.148;2023-11-19T13:46:38;2.53;;;2.38;;
46284;SDS011;32018;59.182;18.148;2023-11-19T13:49:04;2.10;;;2.00;;
46284;SDS011;32018;59.182;18.148;2023-11-19T13:51:29;2.15;;;2.05;;
46284;SDS011;32018;59.182;18.148;2023-11-19T13:53:54;1.80;;;1.70;;
46284;SDS011;32018;59.182;18.148;2023-11-19T13:56:19;1.80;;;1.70;;
46284;SDS011;32018;59.182;18.148;2023-11-19T13:58:45;1.88;;;1.77;;
46284;SDS011;32018;59.182;18.148;2023-11-19T14:01:10;2.10;;;2.00;;
46284;SDS011;32018;59.182;18.148;2023-11-19T14:03:37;2.03;;;1.92;;
46284;SDS011;32018;59.182;18.148;2023-11-19T14:06:03;2.25;;;2.15;;
46284;SDS011;32018;59.182;18.148;2023-11-19T14:08:28;1.80;;;1.70;;
46284;SDS011;32018;59.182;18.148;2023-11-19T14:10:53;2.28;;;2.10;;
46284;SDS011;32018;59.182;18.148;2023-11-19T14:13:20;2.65;;;2.45;;
46284;SDS011;32018;59.182;18.148;2023-11-19T14:15:46;1.80;;;1.70;;
46284;SDS011;32018;59.182;18.148;2023-11-19T14:18:11;2.20;;;2.00;;
46284;SDS011;32018;59.182;18.148;2023-11-19T14:20:36;1.60;;;1.50;;
46284;SDS011;32018;59.182;18.148;2023-11-19T14:23:03;1.90;;;1.70;;
46284;SDS011;32018;59.182;18.148;2023-11-19T14:25:28;1.83;;;1.73;;
46284;SDS011;32018;59.182;18.148;2023-11-19T14:27:54;1.70;;;1.60;;
46284;SDS011;32018;59.182;18.148;2023-11-19T14:30:19;2.10;;;1.92;;
46284;SDS011;32018;59.182;18.148;2023-11-19T14:32:44;1.88;;;1.77;;
46284;SDS011;32018;59.182;18.148;2023-11-19T14:35:11;1.90;;;1.80;;
46284;SDS011;32018;59.182;18.148;2023-11-19T14:37:37;1.77;;;1.67;;
46284;SDS011;32018;59.182;18.148;2023-11-19T14:40:02;2.10;;;2.00;;
46284;SDS011;32018;59.182;18.148;2023-11-19T14:42:32;1.88;;;1.77;;